sensor_id;sensor_type;location;lat;lon;timestamp;P1;durP1;ratioP1;P2;durP2;ratioP2
31652;SDS011;18261;53.648;9.910;2023-11-21T00:00:19;51.72;;;26.70;;
31652;SDS011;18261;53.648;9.910;2023-11-21T00:02:47;51.00;;;26.67;;
31652;SDS011;18261;53.648;9.910;2023-11-21T00:05:16;49.92;;;26.52;;
31652;SDS011;18261;53.648;9.910;2023-11-21T00:07:48;49.30;;;27.20;;
31652;SDS011;18261;53.648;9.910;2023-11-21T00:10:16;59.38;;;26.55;;
31652;SDS011;18261;53.648;9.910;2023-11-21T00:12:42;47.40;;;26.40;;
31652;SDS011;18261;53.648;9.910;2023-11-21T00:15:09;45.85;;;26.15;;
31652;SDS011;18261;53.648;9.910;2023-11-21T00:17:38;47.63;;;24.08;;
31652;SDS011;18261;53.648;9.910;2023-11-21T00:20:05;49.15;;;25.00;;
31652;SDS011;18261;53.648;9.910;2023-11-21T00:22:32;53.03;;;25.58;;
31652;SDS011;18261;53.648;9.910;2023-11-21T00:24:58;47.67;;;25.90;;
31652;SDS011;18261;53.648;9.910;2023-11-21T00:27:24;43.88;;;23.50;;
31652;SDS011;18261;53.648;9.910;2023-11-21T00:29:50;49.70;;;25.73;;
31652;SDS011;18261;53.648;9.910;2023-11-21T00:32:16;43.65;;;24.73;;
31652;SDS011;18261;53.648;9.910;2023-11-21T00:34:42;45.17;;;24.33;;
31652;SDS011;18261;53.648;9.910;2023-11-21T00:37:09;45.47;;;25.15;;
31652;SDS011;18261;53.648;9.910;2023-11-21T00:39:35;43.53;;;25.10;;
31652;SDS011;18261;53.648;9.910;2023-11-21T00:42:01;45.03;;;24.83;;
31652;SDS011;18261;53.648;9.910;2023-11-21T00:44:27;44.28;;;24.30;;
31652;SDS011;18261;53.648;9.910;2023-11-21T00:46:53;46.22;;;23.92;;
31652;SDS011;18261;53.648;9.910;2023-11-21T00:49:19;39.63;;;23.98;;
31652;SDS011;18261;53.648;9.910;2023-11-21T00:51:46;45.20;;;24.92;;
31652;SDS011;18261;53.648;9.910;2023-11-21T00:54:12;43.30;;;23.63;;
31652;SDS011;18261;53.648;9.910;2023-11-21T00:56:38;41.92;;;23.50;;
31652;SDS011;18261;53.648;9.910;2023-11-21T00:59:05;46.17;;;25.10;;
31652;SDS011;18261;53.648;9.910;2023-11-21T01:01:32;43.53;;;24.15;;
31652;SDS011;18261;53.648;9.910;2023-11-21T01:03:58;44.40;;;24.85;;
31652;SDS011;18261;53.648;9.910;2023-11-21T01:06:23;42.65;;;24.70;;
31652;SDS011;18261;53.648;9.910;2023-11-21T01:08:50;44.72;;;24.70;;
31652;SDS011;18261;53.648;9.910;2023-11-21T01:11:16;47.53;;;26.65;;
31652;SDS011;18261;53.648;9.910;2023-11-21T01:13:42;47.53;;;25.38;;
31652;SDS011;18261;53.648;9.910;2023-11-21T01:16:09;53.47;;;27.42;;
31652;SDS011;18261;53.648;9.910;2023-11-21T01:18:36;48.50;;;27.50;;
31652;SDS011;18261;53.648;9.910;2023-11-21T01:21:02;47.40;;;25.38;;
31652;SDS011;18261;53.648;9.910;2023-11-21T01:23:28;39.28;;;22.38;;
31652;SDS011;18261;53.648;9.910;2023-11-21T01:25:55;38.95;;;21.20;;
31652;SDS011;18261;53.648;9.910;2023-11-21T01:28:21;38.45;;;21.38;;
31652;SDS011;18261;53.648;9.910;2023-11-21T01:30:48;40.00;;;20.55;;
31652;SDS011;18261;53.648;9.910;2023-11-21T01:33:14;34.85;;;20.95;;
31652;SDS011;18261;53.648;9.910;2023-11-21T01:35:43;36.78;;;22.23;;
31652;SDS011;18261;53.648;9.910;2023-11-21T01:38:11;41.42;;;22.15;;
31652;SDS011;18261;53.648;9.910;2023-11-21T01:40:39;42.92;;;22.27;;
31652;SDS011;18261;53.648;9.910;2023-11-21T01:43:05;40.28;;;23.08;;
31652;SDS011;18261;53.648;9.910;2023-11-21T01:45:31;39.40;;;21.17;;
31652;SDS011;18261;53.648;9.910;2023-11-21T01:47:58;38.80;;;21.48;;
31652;SDS011;18261;53.648;9.910;2023-11-21T01:50:25;38.80;;;21.90;;
31652;SDS011;18261;53.648;9.910;2023-11-21T01:52:51;34.42;;;19.88;;
31652;SDS011;18261;53.648;9.910;2023-11-21T01:55:18;41.60;;;19.70;;
31652;SDS011;18261;53.648;9.910;2023-11-21T01:57:45;36.72;;;21.27;;
31652;SDS011;18261;53.648;9.910;2023-11-21T02:00:13;35.92;;;20.80;;
31652;SDS011;18261;53.648;9.910;2023-11-21T02:02:52;38.67;;;22.30;;
31652;SDS011;18261;53.648;9.910;2023-11-21T02:05:26;35.53;;;21.63;;
31652;SDS011;18261;53.648;9.910;2023-11-21T02:07:58;41.70;;;21.25;;
31652;SDS011;18261;53.648;9.910;2023-11-21T02:10:25;42.10;;;20.92;;
31652;SDS011;18261;53.648;9.910;2023-11-21T02:12:51;42.30;;;21.02;;
31652;SDS011;18261;53.648;9.910;2023-11-21T02:15:18;31.95;;;19.80;;
31652;SDS011;18261;53.648;9.910;2023-11-21T02:17:48;30.55;;;18.42;;
31652;SDS011;18261;53.648;9.910;2023-11-21T02:20:16;28.90;;;17.13;;
31652;SDS011;18261;53.648;9.910;2023-11-21T02:22:43;30.35;;;15.93;;
31652;SDS011;18261;53.648;9.910;2023-11-21T02:25:09;28.48;;;15.18;;
31652;SDS011;18261;53.648;9.910;2023-11-21T02:27:36;26.65;;;15.68;;
31652;SDS011;18261;53.648;9.910;2023-11-21T02:30:02;25.20;;;14.60;;
31652;SDS011;18261;53.648;9.910;2023-11-21T02:32:30;20.92;;;13.07;;
31652;SDS011;18261;53.648;9.910;2023-11-21T02:34:56;20.10;;;12.95;;
31652;SDS011;18261;53.648;9.910;2023-11-21T02:37:26;19.05;;;11.18;;
31652;SDS011;18261;53.648;9.910;2023-11-21T02:39:52;19.20;;;11.38;;
31652;SDS011;18261;53.648;9.910;2023-11-21T02:42:18;18.75;;;11.80;;
31652;SDS011;18261;53.648;9.910;2023-11-21T02:44:44;20.48;;;12.45;;
31652;SDS011;18261;53.648;9.910;2023-11-21T02:47:10;18.60;;;12.02;;
31652;SDS011;18261;53.648;9.910;2023-11-21T02:49:36;21.75;;;11.60;;
31652;SDS011;18261;53.648;9.910;2023-11-21T02:52:02;21.30;;;12.13;;
31652;SDS011;18261;53.648;9.910;2023-11-21T02:54:28;21.40;;;12.43;;
31652;SDS011;18261;53.648;9.910;2023-11-21T02:56:54;19.63;;;11.40;;
31652;SDS011;18261;53.648;9.910;2023-11-21T02:59:20;20.77;;;11.55;;
31652;SDS011;18261;53.648;9.910;2023-11-21T03:01:46;19.10;;;11.65;;
31652;SDS011;18261;53.648;9.910;2023-11-21T03:04:12;16.13;;;10.13;;
31652;SDS011;18261;53.648;9.910;2023-11-21T03:06:42;17.67;;;11.07;;
31652;SDS011;18261;53.648;9.910;2023-11-21T03:09:09;21.00;;;10.52;;
31652;SDS011;18261;53.648;9.910;2023-11-21T03:11:36;17.25;;;10.32;;
31652;SDS011;18261;53.648;9.910;2023-11-21T03:14:02;21.50;;;11.98;;
31652;SDS011;18261;53.648;9.910;2023-11-21T03:16:30;18.52;;;11.25;;
31652;SDS011;18261;53.648;9.910;2023-11-21T03:18:56;17.65;;;10.65;;
31652;SDS011;18261;53.648;9.910;2023-11-21T03:21:22;17.63;;;10.23;;
31652;SDS011;18261;53.648;9.910;2023-11-21T03:23:48;19.13;;;10.50;;
31652;SDS011;18261;53.648;9.910;2023-11-21T03:26:14;17.25;;;10.93;;
31652;SDS011;18261;53.648;9.910;2023-11-21T03:28:40;14.70;;;10.25;;
31652;SDS011;18261;53.648;9.910;2023-11-21T03:31:06;15.18;;;10.13;;
31652;SDS011;18261;53.648;9.910;2023-11-21T03:33:33;18.80;;;11.65;;
31652;SDS011;18261;53.648;9.910;2023-11-21T03:36:00;21.05;;;11.05;;
31652;SDS011;18261;53.648;9.910;2023-11-21T03:38:26;20.23;;;11.98;;
31652;SDS011;18261;53.648;9.910;2023-11-21T03:40:52;24.75;;;12.40;;
31652;SDS011;18261;53.648;9.910;2023-11-21T03:43:18;19.65;;;12.18;;
31652;SDS011;18261;53.648;9.910;2023-11-21T03:45:44;21.70;;;12.27;;
31652;SDS011;18261;53.648;9.910;2023-11-21T03:48:12;24.58;;;11.95;;
31652;SDS011;18261;53.648;9.910;2023-11-21T03:50:38;19.90;;;11.68;;
31652;SDS011;18261;53.648;9.910;2023-11-21T03:53:04;20.92;;;12.07;;
31652;SDS011;18261;53.648;9.910;2023-11-21T03:55:30;21.35;;;11.68;;
31652;SDS011;18261;53.648;9.910;2023-11-21T03:57:57;18.52;;;10.98;;
31652;SDS011;18261;53.648;9.910;2023-11-21T04:00:23;22.55;;;12.25;;
31652;SDS011;18261;53.648;9.910;2023-11-21T04:02:49;18.40;;;11.25;;
31652;SDS011;18261;53.648;9.910;2023-11-21T04:05:16;23.00;;;12.88;;
31652;SDS011;18261;53.648;9.910;2023-11-21T04:07:42;20.55;;;12.05;;
31652;SDS011;18261;53.648;9.910;2023-11-21T04:10:09;19.77;;;12.40;;
31652;SDS011;18261;53.648;9.910;2023-11-21T04:12:37;19.02;;;12.38;;
31652;SDS011;18261;53.648;9.910;2023-11-21T04:15:03;22.27;;;12.75;;
31652;SDS011;18261;53.648;9.910;2023-11-21T04:17:29;20.60;;;12.68;;
31652;SDS011;18261;53.648;9.910;2023-11-21T04:19:56;19.80;;;12.55;;
31652;SDS011;18261;53.648;9.910;2023-11-21T04:22:22;22.23;;;12.52;;
31652;SDS011;18261;53.648;9.910;2023-11-21T04:24:47;22.05;;;12.85;;
31652;SDS011;18261;53.648;9.910;2023-11-21T04:27:14;20.65;;;13.02;;
31652;SDS011;18261;53.648;9.910;2023-11-21T04:29:42;23.02;;;13.02;;
31652;SDS011;18261;53.648;9.910;2023-11-21T04:32:09;20.30;;;12.02;;
31652;SDS011;18261;53.648;9.910;2023-11-21T04:34:35;27.13;;;12.18;;
31652;SDS011;18261;53.648;9.910;2023-11-21T04:37:01;21.23;;;11.93;;
31652;SDS011;18261;53.648;9.910;2023-11-21T04:39:28;21.25;;;12.52;;
31652;SDS011;18261;53.648;9.910;2023-11-21T04:41:54;20.38;;;12.75;;
31652;SDS011;18261;53.648;9.910;2023-11-21T04:44:20;23.10;;;13.32;;
31652;SDS011;18261;53.648;9.910;2023-11-21T04:46:46;23.08;;;12.93;;
31652;SDS011;18261;53.648;9.910;2023-11-21T04:49:12;24.17;;;13.10;;
31652;SDS011;18261;53.648;9.910;2023-11-21T04:51:38;21.38;;;12.30;;
31652;SDS011;18261;53.648;9.910;2023-11-21T04:54:04;26.08;;;14.90;;
31652;SDS011;18261;53.648;9.910;2023-11-21T04:56:30;23.17;;;12.50;;
31652;SDS011;18261;53.648;9.910;2023-11-21T04:58:56;21.02;;;12.93;;
31652;SDS011;18261;53.648;9.910;2023-11-21T05:01:23;25.27;;;14.07;;
31652;SDS011;18261;53.648;9.910;2023-11-21T05:03:49;24.55;;;13.35;;
31652;SDS011;18261;53.648;9.910;2023-11-21T05:06:15;21.75;;;12.95;;
31652;SDS011;18261;53.648;9.910;2023-11-21T05:08:41;19.35;;;12.30;;
31652;SDS011;18261;53.648;9.910;2023-11-21T05:11:07;18.58;;;11.55;;
31652;SDS011;18261;53.648;9.910;2023-11-21T05:13:35;17.83;;;12.02;;
31652;SDS011;18261;53.648;9.910;2023-11-21T05:16:01;22.08;;;12.23;;
31652;SDS011;18261;53.648;9.910;2023-11-21T05:18:29;20.60;;;12.25;;
31652;SDS011;18261;53.648;9.910;2023-11-21T05:20:55;18.15;;;10.98;;
31652;SDS011;18261;53.648;9.910;2023-11-21T05:23:21;19.30;;;11.57;;
31652;SDS011;18261;53.648;9.910;2023-11-21T05:25:47;20.80;;;11.63;;
31652;SDS011;18261;53.648;9.910;2023-11-21T05:28:13;22.52;;;11.32;;
31652;SDS011;18261;53.648;9.910;2023-11-21T05:30:39;25.55;;;12.40;;
31652;SDS011;18261;53.648;9.910;2023-11-21T05:33:05;19.40;;;11.98;;
31652;SDS011;18261;53.648;9.910;2023-11-21T05:35:31;21.05;;;11.07;;
31652;SDS011;18261;53.648;9.910;2023-11-21T05:37:57;18.10;;;11.48;;
31652;SDS011;18261;53.648;9.910;2023-11-21T05:40:23;20.45;;;11.95;;
31652;SDS011;18261;53.648;9.910;2023-11-21T05:42:51;24.45;;;12.10;;
31652;SDS011;18261;53.648;9.910;2023-11-21T05:45:17;18.25;;;10.88;;
31652;SDS011;18261;53.648;9.910;2023-11-21T05:47:44;17.33;;;11.38;;
31652;SDS011;18261;53.648;9.910;2023-11-21T05:50:14;20.10;;;11.82;;
31652;SDS011;18261;53.648;9.910;2023-11-21T05:52:41;18.85;;;11.65;;
31652;SDS011;18261;53.648;9.910;2023-11-21T05:55:07;17.85;;;11.38;;
31652;SDS011;18261;53.648;9.910;2023-11-21T05:57:38;19.38;;;10.80;;
31652;SDS011;18261;53.648;9.910;2023-11-21T06:00:08;17.40;;;11.48;;
31652;SDS011;18261;53.648;9.910;2023-11-21T06:02:36;19.15;;;11.25;;
31652;SDS011;18261;53.648;9.910;2023-11-21T06:05:03;15.95;;;10.68;;
31652;SDS011;18261;53.648;9.910;2023-11-21T06:07:29;20.85;;;12.13;;
31652;SDS011;18261;53.648;9.910;2023-11-21T06:09:55;17.95;;;10.85;;
31652;SDS011;18261;53.648;9.910;2023-11-21T06:12:21;19.50;;;11.30;;
31652;SDS011;18261;53.648;9.910;2023-11-21T06:14:47;18.13;;;10.88;;
31652;SDS011;18261;53.648;9.910;2023-11-21T06:17:13;19.20;;;11.43;;
31652;SDS011;18261;53.648;9.910;2023-11-21T06:19:39;21.13;;;12.00;;
31652;SDS011;18261;53.648;9.910;2023-11-21T06:22:05;17.83;;;11.95;;
31652;SDS011;18261;53.648;9.910;2023-11-21T06:24:31;22.70;;;12.15;;
31652;SDS011;18261;53.648;9.910;2023-11-21T06:26:57;18.60;;;12.13;;
31652;SDS011;18261;53.648;9.910;2023-11-21T06:29:23;19.50;;;11.85;;
31652;SDS011;18261;53.648;9.910;2023-11-21T06:31:49;21.58;;;12.35;;
31652;SDS011;18261;53.648;9.910;2023-11-21T06:34:15;23.48;;;12.38;;
31652;SDS011;18261;53.648;9.910;2023-11-21T06:36:41;21.00;;;11.80;;
31652;SDS011;18261;53.648;9.910;2023-11-21T06:39:07;17.45;;;11.70;;
31652;SDS011;18261;53.648;9.910;2023-11-21T06:41:34;19.92;;;12.32;;
31652;SDS011;18261;53.648;9.910;2023-11-21T06:43:59;19.20;;;10.98;;
31652;SDS011;18261;53.648;9.910;2023-11-21T06:46:25;20.63;;;12.20;;
31652;SDS011;18261;53.648;9.910;2023-11-21T06:48:52;19.75;;;11.10;;
31652;SDS011;18261;53.648;9.910;2023-11-21T06:51:17;17.20;;;11.80;;
31652;SDS011;18261;53.648;9.910;2023-11-21T06:53:43;22.75;;;12.38;;
31652;SDS011;18261;53.648;9.910;2023-11-21T06:56:16;17.75;;;11.40;;
31652;SDS011;18261;53.648;9.910;2023-11-21T06:58:43;20.60;;;11.00;;
31652;SDS011;18261;53.648;9.910;2023-11-21T07:01:10;16.33;;;10.20;;
31652;SDS011;18261;53.648;9.910;2023-11-21T07:03:36;19.38;;;10.10;;
31652;SDS011;18261;53.648;9.910;2023-11-21T07:06:03;19.13;;;10.55;;
31652;SDS011;18261;53.648;9.910;2023-11-21T07:08:29;15.63;;;10.68;;
31652;SDS011;18261;53.648;9.910;2023-11-21T07:10:55;17.83;;;10.60;;
31652;SDS011;18261;53.648;9.910;2023-11-21T07:13:21;15.25;;;10.38;;
31652;SDS011;18261;53.648;9.910;2023-11-21T07:15:47;18.85;;;10.65;;
31652;SDS011;18261;53.648;9.910;2023-11-21T07:18:13;18.58;;;9.85;;
31652;SDS011;18261;53.648;9.910;2023-11-21T07:20:39;25.15;;;13.20;;
31652;SDS011;18261;53.648;9.910;2023-11-21T07:23:05;19.40;;;12.45;;
31652;SDS011;18261;53.648;9.910;2023-11-21T07:25:31;19.02;;;10.20;;
31652;SDS011;18261;53.648;9.910;2023-11-21T07:27:58;20.30;;;10.18;;
31652;SDS011;18261;53.648;9.910;2023-11-21T07:30:25;15.60;;;10.18;;
31652;SDS011;18261;53.648;9.910;2023-11-21T07:32:52;17.92;;;9.68;;
31652;SDS011;18261;53.648;9.910;2023-11-21T07:35:18;16.23;;;10.13;;
31652;SDS011;18261;53.648;9.910;2023-11-21T07:37:44;17.85;;;10.18;;
31652;SDS011;18261;53.648;9.910;2023-11-21T07:40:10;19.08;;;11.07;;
31652;SDS011;18261;53.648;9.910;2023-11-21T07:42:36;18.83;;;11.48;;
31652;SDS011;18261;53.648;9.910;2023-11-21T07:45:03;16.38;;;10.38;;
31652;SDS011;18261;53.648;9.910;2023-11-21T07:47:29;17.33;;;11.15;;
31652;SDS011;18261;53.648;9.910;2023-11-21T07:49:56;18.50;;;11.30;;
31652;SDS011;18261;53.648;9.910;2023-11-21T07:52:22;17.25;;;11.23;;
31652;SDS011;18261;53.648;9.910;2023-11-21T07:54:49;21.92;;;11.32;;
31652;SDS011;18261;53.648;9.910;2023-11-21T07:57:15;59.78;;;32.72;;
31652;SDS011;18261;53.648;9.910;2023-11-21T07:59:41;24.98;;;12.98;;
31652;SDS011;18261;53.648;9.910;2023-11-21T08:02:07;22.75;;;11.43;;
31652;SDS011;18261;53.648;9.910;2023-11-21T08:04:33;19.40;;;11.57;;
31652;SDS011;18261;53.648;9.910;2023-11-21T08:07:00;16.45;;;10.38;;
31652;SDS011;18261;53.648;9.910;2023-11-21T08:09:26;17.80;;;10.27;;
31652;SDS011;18261;53.648;9.910;2023-11-21T08:11:52;19.75;;;11.63;;
31652;SDS011;18261;53.648;9.910;2023-11-21T08:14:19;17.80;;;10.90;;
31652;SDS011;18261;53.648;9.910;2023-11-21T08:16:45;24.23;;;12.35;;
31652;SDS011;18261;53.648;9.910;2023-11-21T08:19:12;20.15;;;11.07;;
31652;SDS011;18261;53.648;9.910;2023-11-21T08:21:38;17.90;;;10.38;;
31652;SDS011;18261;53.648;9.910;2023-11-21T08:24:05;22.20;;;10.82;;
31652;SDS011;18261;53.648;9.910;2023-11-21T08:26:35;14.73;;;9.43;;
31652;SDS011;18261;53.648;9.910;2023-11-21T08:29:01;20.45;;;9.50;;
31652;SDS011;18261;53.648;9.910;2023-11-21T08:31:27;17.38;;;9.52;;
31652;SDS011;18261;53.648;9.910;2023-11-21T08:33:54;20.60;;;10.02;;
31652;SDS011;18261;53.648;9.910;2023-11-21T08:36:20;17.17;;;9.85;;
31652;SDS011;18261;53.648;9.910;2023-11-21T08:38:48;16.08;;;9.15;;
31652;SDS011;18261;53.648;9.910;2023-11-21T08:41:14;15.25;;;8.85;;
31652;SDS011;18261;53.648;9.910;2023-11-21T08:43:41;15.30;;;9.02;;
31652;SDS011;18261;53.648;9.910;2023-11-21T08:46:07;18.85;;;8.43;;
31652;SDS011;18261;53.648;9.910;2023-11-21T08:48:36;14.20;;;8.07;;
31652;SDS011;18261;53.648;9.910;2023-11-21T08:51:03;15.70;;;8.93;;
31652;SDS011;18261;53.648;9.910;2023-11-21T08:53:29;15.68;;;9.10;;
31652;SDS011;18261;53.648;9.910;2023-11-21T08:55:56;12.63;;;7.10;;
31652;SDS011;18261;53.648;9.910;2023-11-21T08:58:22;10.55;;;5.90;;
31652;SDS011;18261;53.648;9.910;2023-11-21T09:00:48;14.32;;;6.18;;
31652;SDS011;18261;53.648;9.910;2023-11-21T09:03:14;8.85;;;5.32;;
31652;SDS011;18261;53.648;9.910;2023-11-21T09:05:40;11.15;;;5.30;;
31652;SDS011;18261;53.648;9.910;2023-11-21T09:08:06;9.48;;;5.15;;
31652;SDS011;18261;53.648;9.910;2023-11-21T09:10:35;12.65;;;6.10;;
31652;SDS011;18261;53.648;9.910;2023-11-21T09:13:01;11.63;;;5.22;;
31652;SDS011;18261;53.648;9.910;2023-11-21T09:15:27;8.15;;;4.70;;
31652;SDS011;18261;53.648;9.910;2023-11-21T09:17:53;9.32;;;4.38;;
31652;SDS011;18261;53.648;9.910;2023-11-21T09:20:19;8.30;;;4.53;;
31652;SDS011;18261;53.648;9.910;2023-11-21T09:22:48;8.00;;;4.20;;
31652;SDS011;18261;53.648;9.910;2023-11-21T09:25:14;9.20;;;4.40;;
31652;SDS011;18261;53.648;9.910;2023-11-21T09:27:40;7.00;;;3.47;;
31652;SDS011;18261;53.648;9.910;2023-11-21T09:30:06;6.15;;;3.63;;
31652;SDS011;18261;53.648;9.910;2023-11-21T09:32:36;10.35;;;3.78;;
31652;SDS011;18261;53.648;9.910;2023-11-21T09:35:02;7.03;;;3.60;;
31652;SDS011;18261;53.648;9.910;2023-11-21T09:37:28;5.10;;;3.25;;
31652;SDS011;18261;53.648;9.910;2023-11-21T09:39:54;5.55;;;3.40;;
31652;SDS011;18261;53.648;9.910;2023-11-21T09:42:23;7.50;;;3.47;;
31652;SDS011;18261;53.648;9.910;2023-11-21T09:44:53;4.90;;;3.50;;
31652;SDS011;18261;53.648;9.910;2023-11-21T09:47:20;7.72;;;4.20;;
31652;SDS011;18261;53.648;9.910;2023-11-21T09:49:47;10.63;;;5.00;;
31652;SDS011;18261;53.648;9.910;2023-11-21T09:52:26;7.72;;;4.32;;
31652;SDS011;18261;53.648;9.910;2023-11-21T09:54:53;10.35;;;5.22;;
31652;SDS011;18261;53.648;9.910;2023-11-21T09:57:20;5.75;;;4.03;;
31652;SDS011;18261;53.648;9.910;2023-11-21T09:59:47;7.00;;;4.53;;
31652;SDS011;18261;53.648;9.910;2023-11-21T10:02:15;7.28;;;4.70;;
31652;SDS011;18261;53.648;9.910;2023-11-21T10:04:43;9.50;;;4.63;;
31652;SDS011;18261;53.648;9.910;2023-11-21T10:07:10;9.82;;;4.72;;
31652;SDS011;18261;53.648;9.910;2023-11-21T10:09:36;9.50;;;4.68;;
31652;SDS011;18261;53.648;9.910;2023-11-21T10:12:03;6.57;;;3.67;;
31652;SDS011;18261;53.648;9.910;2023-11-21T10:14:33;6.10;;;3.80;;
31652;SDS011;18261;53.648;9.910;2023-11-21T10:16:59;7.63;;;3.60;;
31652;SDS011;18261;53.648;9.910;2023-11-21T10:19:26;5.25;;;2.97;;
31652;SDS011;18261;53.648;9.910;2023-11-21T10:21:52;4.72;;;2.90;;
31652;SDS011;18261;53.648;9.910;2023-11-21T10:24:19;11.40;;;3.47;;
31652;SDS011;18261;53.648;9.910;2023-11-21T10:26:45;6.05;;;3.20;;
31652;SDS011;18261;53.648;9.910;2023-11-21T10:29:14;10.77;;;3.53;;
31652;SDS011;18261;53.648;9.910;2023-11-21T10:31:43;5.28;;;3.33;;
31652;SDS011;18261;53.648;9.910;2023-11-21T10:34:13;11.50;;;4.32;;
31652;SDS011;18261;53.648;9.910;2023-11-21T10:36:40;6.32;;;3.53;;
31652;SDS011;18261;53.648;9.910;2023-11-21T10:39:06;7.07;;;3.30;;
31652;SDS011;18261;53.648;9.910;2023-11-21T10:41:32;12.18;;;4.15;;
31652;SDS011;18261;53.648;9.910;2023-11-21T10:44:00;4.90;;;2.90;;
31652;SDS011;18261;53.648;9.910;2023-11-21T10:46:29;8.65;;;3.42;;
31652;SDS011;18261;53.648;9.910;2023-11-21T10:48:55;6.95;;;3.10;;
31652;SDS011;18261;53.648;9.910;2023-11-21T10:51:21;6.10;;;3.00;;
31652;SDS011;18261;53.648;9.910;2023-11-21T10:53:49;6.78;;;3.92;;
31652;SDS011;18261;53.648;9.910;2023-11-21T10:56:16;8.35;;;3.80;;
31652;SDS011;18261;53.648;9.910;2023-11-21T10:58:46;4.55;;;2.85;;
31652;SDS011;18261;53.648;9.910;2023-11-21T11:01:12;10.75;;;5.65;;
31652;SDS011;18261;53.648;9.910;2023-11-21T11:03:39;5.53;;;3.63;;
31652;SDS011;18261;53.648;9.910;2023-11-21T11:06:05;8.07;;;4.18;;
31652;SDS011;18261;53.648;9.910;2023-11-21T11:08:36;6.40;;;3.70;;
31652;SDS011;18261;53.648;9.910;2023-11-21T11:11:03;8.27;;;3.60;;
31652;SDS011;18261;53.648;9.910;2023-11-21T11:13:30;16.35;;;5.80;;
31652;SDS011;18261;53.648;9.910;2023-11-21T11:15:59;7.38;;;4.22;;
31652;SDS011;18261;53.648;9.910;2023-11-21T11:18:26;8.30;;;4.40;;
31652;SDS011;18261;53.648;9.910;2023-11-21T11:20:53;6.82;;;3.97;;
31652;SDS011;18261;53.648;9.910;2023-11-21T11:28:44;5.82;;;3.20;;
31652;SDS011;18261;53.648;9.910;2023-11-21T11:36:13;6.85;;;3.30;;
31652;SDS011;18261;53.648;9.910;2023-11-21T11:38:44;5.57;;;2.95;;
31652;SDS011;18261;53.648;9.910;2023-11-21T11:41:11;10.48;;;4.75;;
31652;SDS011;18261;53.648;9.910;2023-11-21T11:43:37;9.00;;;3.95;;
31652;SDS011;18261;53.648;9.910;2023-11-21T11:46:10;11.02;;;4.95;;
31652;SDS011;18261;53.648;9.910;2023-11-21T11:48:40;6.40;;;3.72;;
31652;SDS011;18261;53.648;9.910;2023-11-21T11:51:13;13.30;;;4.40;;
31652;SDS011;18261;53.648;9.910;2023-11-21T11:53:43;7.13;;;3.90;;
31652;SDS011;18261;53.648;9.910;2023-11-21T11:56:21;5.93;;;3.20;;
31652;SDS011;18261;53.648;9.910;2023-11-21T11:58:48;5.75;;;3.53;;
31652;SDS011;18261;53.648;9.910;2023-11-21T12:01:16;6.65;;;3.55;;
31652;SDS011;18261;53.648;9.910;2023-11-21T12:03:42;5.80;;;3.17;;
31652;SDS011;18261;53.648;9.910;2023-11-21T12:06:08;7.18;;;3.65;;
31652;SDS011;18261;53.648;9.910;2023-11-21T12:08:36;6.03;;;3.17;;
31652;SDS011;18261;53.648;9.910;2023-11-21T12:11:03;6.50;;;3.83;;
31652;SDS011;18261;53.648;9.910;2023-11-21T12:13:29;7.05;;;3.63;;
31652;SDS011;18261;53.648;9.910;2023-11-21T12:15:55;8.20;;;3.35;;
31652;SDS011;18261;53.648;9.910;2023-11-21T12:18:21;9.30;;;3.33;;
31652;SDS011;18261;53.648;9.910;2023-11-21T12:20:47;7.75;;;3.97;;
31652;SDS011;18261;53.648;9.910;2023-11-21T12:23:15;7.45;;;3.75;;
31652;SDS011;18261;53.648;9.910;2023-11-21T12:25:42;8.48;;;4.28;;
31652;SDS011;18261;53.648;9.910;2023-11-21T12:28:08;8.70;;;3.60;;
31652;SDS011;18261;53.648;9.910;2023-11-21T12:30:34;9.15;;;3.70;;
31652;SDS011;18261;53.648;9.910;2023-11-21T12:33:01;7.35;;;4.18;;
31652;SDS011;18261;53.648;9.910;2023-11-21T12:35:33;5.90;;;3.80;;
31652;SDS011;18261;53.648;9.910;2023-11-21T12:38:00;9.75;;;3.78;;
31652;SDS011;18261;53.648;9.910;2023-11-21T12:40:29;7.88;;;4.00;;
31652;SDS011;18261;53.648;9.910;2023-11-21T12:42:56;6.22;;;3.38;;
31652;SDS011;18261;53.648;9.910;2023-11-21T12:45:24;6.68;;;3.88;;
31652;SDS011;18261;53.648;9.910;2023-11-21T12:47:50;6.85;;;3.80;;
31652;SDS011;18261;53.648;9.910;2023-11-21T12:50:20;5.28;;;3.20;;
31652;SDS011;18261;53.648;9.910;2023-11-21T12:52:48;10.18;;;3.70;;
31652;SDS011;18261;53.648;9.910;2023-11-21T12:55:15;7.50;;;3.40;;
31652;SDS011;18261;53.648;9.910;2023-11-21T12:57:42;7.40;;;3.33;;
31652;SDS011;18261;53.648;9.910;2023-11-21T13:00:08;9.82;;;3.63;;
31652;SDS011;18261;53.648;9.910;2023-11-21T13:02:38;4.70;;;3.20;;
31652;SDS011;18261;53.648;9.910;2023-11-21T13:05:07;5.82;;;3.00;;
31652;SDS011;18261;53.648;9.910;2023-11-21T13:07:43;10.05;;;2.95;;
31652;SDS011;18261;53.648;9.910;2023-11-21T13:10:12;13.52;;;4.65;;
31652;SDS011;18261;53.648;9.910;2023-11-21T13:12:42;6.00;;;3.30;;
31652;SDS011;18261;53.648;9.910;2023-11-21T13:15:09;7.88;;;3.47;;
31652;SDS011;18261;53.648;9.910;2023-11-21T13:17:35;6.75;;;3.55;;
31652;SDS011;18261;53.648;9.910;2023-11-21T13:20:01;6.38;;;3.55;;
31652;SDS011;18261;53.648;9.910;2023-11-21T13:22:31;7.20;;;3.58;;
31652;SDS011;18261;53.648;9.910;2023-11-21T13:24:58;9.73;;;3.47;;
31652;SDS011;18261;53.648;9.910;2023-11-21T13:27:24;6.18;;;3.55;;
31652;SDS011;18261;53.648;9.910;2023-11-21T13:29:51;11.27;;;4.20;;
31652;SDS011;18261;53.648;9.910;2023-11-21T13:32:17;9.13;;;3.78;;
31652;SDS011;18261;53.648;9.910;2023-11-21T13:34:45;8.30;;;3.38;;
31652;SDS011;18261;53.648;9.910;2023-11-21T13:37:12;6.93;;;3.63;;
31652;SDS011;18261;53.648;9.910;2023-11-21T13:39:38;7.65;;;3.80;;
31652;SDS011;18261;53.648;9.910;2023-11-21T13:42:09;9.48;;;4.13;;
31652;SDS011;18261;53.648;9.910;2023-11-21T13:44:36;8.50;;;3.95;;
31652;SDS011;18261;53.648;9.910;2023-11-21T13:47:06;7.75;;;4.55;;
31652;SDS011;18261;53.648;9.910;2023-11-21T13:49:32;7.47;;;4.07;;
31652;SDS011;18261;53.648;9.910;2023-11-21T13:52:05;9.25;;;3.83;;
31652;SDS011;18261;53.648;9.910;2023-11-21T13:54:32;8.55;;;4.13;;
31652;SDS011;18261;53.648;9.910;2023-11-21T13:56:58;8.50;;;4.00;;
31652;SDS011;18261;53.648;9.910;2023-11-21T13:59:25;7.30;;;4.05;;
31652;SDS011;18261;53.648;9.910;2023-11-21T14:01:53;9.15;;;4.07;;
31652;SDS011;18261;53.648;9.910;2023-11-21T14:04:24;9.35;;;4.70;;
31652;SDS011;18261;53.648;9.910;2023-11-21T14:06:51;8.75;;;4.35;;
31652;SDS011;18261;53.648;9.910;2023-11-21T14:09:20;6.43;;;4.03;;
31652;SDS011;18261;53.648;9.910;2023-11-21T14:12:00;7.05;;;3.92;;
31652;SDS011;18261;53.648;9.910;2023-11-21T14:14:31;7.20;;;4.10;;
31652;SDS011;18261;53.648;9.910;2023-11-21T14:16:57;9.52;;;4.45;;
31652;SDS011;18261;53.648;9.910;2023-11-21T14:19:31;6.95;;;4.50;;
31652;SDS011;18261;53.648;9.910;2023-11-21T14:21:58;10.07;;;4.80;;
31652;SDS011;18261;53.648;9.910;2023-11-21T14:24:24;9.30;;;4.35;;
31652;SDS011;18261;53.648;9.910;2023-11-21T14:26:51;8.20;;;3.65;;
31652;SDS011;18261;53.648;9.910;2023-11-21T14:29:18;7.55;;;3.30;;
31652;SDS011;18261;53.648;9.910;2023-11-21T14:31:45;6.05;;;3.40;;
31652;SDS011;18261;53.648;9.910;2023-11-21T14:34:11;9.82;;;3.67;;
31652;SDS011;18261;53.648;9.910;2023-11-21T14:36:38;6.10;;;3.10;;
31652;SDS011;18261;53.648;9.910;2023-11-21T14:39:05;7.20;;;3.15;;